Bridgeport Valley, California Weather observations

Data are for 10 minute period ending at time listed.
 Day   Time   Solar   Ave.   Ave.  Ave.  Vector  Max.   Baro.   Total    
  of    of     Rad.   Air    Rel.  Wind   Wind   Wind  Press.  Precip.   
Year   Day            Temp.  Hum.  Speed  Dir.   Gust                    
2014   (PST)  Kw/m2    F      %     mph   deg.    mph    mb.     in.     
-------------------------------------------------------------------------
 107    7:30   0.38   42.8    52    1.3    91     3.2   799.3    0.00 
 107    7:40   0.42   44.3    50    1.2   112     3.5   799.3    0.00 
 107    7:50   0.46   45.3    47    1.9    78     4.1   799.3    0.00 
 107    8:00   0.49   46.3    45    1.8    93     3.7   799.3    0.00 
 107    8:10   0.53   48.1    43    1.3    64     4.5   799.2    0.00 
 107    8:20   0.56   49.2    41    1.8    45     3.7   799.1    0.00 
 107    8:30   0.59   50.2    41    2.1    60     7.5   799.0    0.00 
 107    8:40   0.63   51.4    40    1.7    11     3.6   799.0    0.00 
 107    8:50   0.66   53.4    38    1.3   114     4.0   798.9    0.00 
 107    9:00   0.69   54.9    35    1.1    38     4.2   798.7    0.00 
 107    9:10   0.72   56.8    35    1.8    77     4.0   798.7    0.00 
 107    9:20   0.68   58.2    33    1.5    78     3.4   798.5    0.00 
 107    9:30   0.73   58.4    32    2.8    46     5.8   798.4    0.00 
 107    9:40   0.72   59.6    32    2.2    46     4.7   798.3    0.00 
 107    9:50   0.81   60.4    31    2.4    26     7.2   798.2    0.00 
 107   10:00   0.84   62.6    29    2.9    40     6.0   798.1    0.00 
 107   10:10   0.84   64.0    28    3.0    14     5.8   797.9    0.00 
 107   10:20   0.77   65.9    26    3.0    95     6.4   797.7    0.00 
 107   10:30   0.78   66.1    25    3.8   156    10.1   797.7    0.00 
 107   10:40   0.89   66.2    23    3.5   211     9.6   797.6    0.00 
 107   10:50   0.80   67.0    24    5.5   239    13.6   797.5    0.00 
 107   11:00   0.91   67.4    25   12.2   233    18.7   797.4    0.00 
 107   11:10   0.92   67.8    25   13.0   227    20.5   797.3    0.00 
 107   11:20   0.80   67.0    25   15.9   237    27.1   797.2    0.00 
 107   11:30   0.74   66.5    26   17.0   232    24.3   797.2    0.00 
 107   11:40   0.70   65.8    27   16.2   229    26.7   797.2    0.00 
 107   11:50   0.72   66.6    27   17.9   238    25.7   797.1    0.00 
 107   12:00   0.64   66.1    28   17.4   231    24.6   797.2    0.00 
 107   12:10   0.61   65.5    29   19.0   233    26.7   797.2    0.00 
 107   12:20   0.50   64.4    30   17.4   229    23.2   797.3    0.00 
 107   12:30   0.54   64.4    30   16.9   231    23.7   797.2    0.00 
 107   12:40   0.50   64.7    30   17.0   232    24.1   797.2    0.00 
 107   12:50   0.48   64.3    30   17.0   228    22.9   797.3    0.00 
 107   13:00   0.49   64.1    31   14.7   228    22.3   797.5    0.00 
 107   13:10   0.43   63.8    31   16.8   229    23.7   797.4    0.00 
 107   13:20   0.43   63.4    31   17.2   229    23.5   797.5    0.00 
 107   13:30   0.42   63.6    31   15.2   236    22.0   797.5    0.00 
 107   13:40   0.41   63.5    30   13.6   238    21.2   797.5    0.00 
 107   13:50   0.41   63.7    30   14.5   239    21.5   797.4    0.00 
 107   14:00   0.40   63.6    30   12.7   242    20.4   797.4    0.00 
 107   14:10   0.38   63.3    30   14.4   242    23.2   797.3    0.00 
 107   14:20   0.37   63.3    30   11.6   238    17.2   797.3    0.00 
 107   14:30   0.37   63.4    31   10.4   225    14.8   797.2    0.00 
 107   14:40   0.36   63.6    29   10.7   231    17.7   797.0    0.00 
 107   14:50   0.35   63.7    28   10.5   239    15.3   797.0    0.00 
 107   15:00   0.32   63.8    26    9.0   247    15.6   796.9    0.00 
 107   15:10   0.29   63.4    27   10.7   252    15.5   796.9    0.00 
 107   15:20   0.26   62.8    28   10.1   263    19.6   796.9    0.00 
 107   15:30   0.24   62.7    28    5.8   248    10.7   796.9    0.00 
 107   15:40   0.22   62.5    28    7.8   236    14.2   796.9    0.00 
 107   15:50   0.21   61.8    29   11.0   246    17.5   796.9    0.00 
 107   16:00   0.20   61.4    29   11.6   251    15.9   796.9    0.00 
 107   16:10   0.19   61.2    28   10.8   250    17.7   796.9    0.00 
 107   16:20   0.19   61.0    28   12.1   250    17.6   796.9    0.00 
 107   16:30   0.16   60.7    29    9.0   253    12.6   797.0    0.00 
 107   16:40   0.13   60.2    29   10.2   249    15.4   796.9    0.00 
 107   16:50   0.11   59.9    28   10.6   245    17.2   796.9    0.00 
 107   17:00   0.10   59.6    27   12.8   248    22.3   796.9    0.00 
 107   17:10   0.08   59.3    26   12.3   260    19.0   797.0    0.00 
 107   17:20   0.06   59.2    25   11.8   264    20.0   796.9    0.00 
 107   17:30   0.10   59.4    26   10.1   274    19.2   796.9    0.00 
 107   17:40   0.12   60.1    25   10.7   282    16.8   796.8    0.00 
 107   17:50   0.08   59.2    26   10.5   277    14.2   796.7    0.00 
 107   18:00   0.03   58.0    28    8.8   276    15.4   796.8    0.00 
 107   18:10   0.03   56.9    29    9.1   275    13.2   796.8    0.00 
 107   18:20   0.01   56.6    29    8.7   275    12.1   796.9    0.00 
 107   18:30   0.01   56.2    30   11.8   272    17.5   796.8    0.00 
 107   18:40   0.00   56.0    31   10.8   260    20.0   796.9    0.00 
 107   18:50   0.00   55.0    33    8.9   258    13.2   797.0    0.00 
 107   19:00   0.00   54.6    35    8.7   264    11.9   797.1    0.00 
 107   19:10   0.00   53.7    38    8.0   258    11.0   797.1    0.00 
 107   19:20   0.00   54.0    39    9.3   256    15.6   797.2    0.00 
 107   19:30   0.00   54.3    39    8.4   250    12.3   797.3    0.00 
 107   19:40   0.00   53.9    40    7.1   257    11.9   797.4    0.00 
 107   19:50   0.00   52.9    43    5.5   219    11.2   797.4    0.00 
 107   20:00   0.00   52.2    45    4.5   215     7.8   797.5    0.00 
 107   20:10   0.00   51.7    45    4.5   252     8.3   797.7    0.00 
 107   20:20   0.00   51.5    45    2.8   215     5.7   797.7    0.00 
 107   20:30   0.00   52.1    43    4.9   270     6.9   797.7    0.00 
 107   20:40   0.00   52.3    43    6.8   285    11.6   797.8    0.00 
 107   20:50   0.00   52.3    43    7.1   289    12.5   797.8    0.00 
 107   21:00   0.00   51.8    44    5.6   284     8.5   797.8    0.00 
 107   21:10   0.00   51.0    46    3.4   237     5.9   797.9    0.00 
 107   21:20   0.00   49.0    51    3.4   173     4.9   798.0    0.00 
 107   21:30   0.00   46.5    56    1.5   120     3.3   797.9    0.00 
 107   21:40   0.00   45.8    58    1.3   332     3.3   797.8    0.00 
 107   21:50   0.00   46.5    55    1.2   318     2.8   797.8    0.00 
 107   22:00   0.00   45.6    58    4.1   174     7.4   797.8    0.00 
 107   22:10   0.00   44.2    62    2.0   226     3.4   797.8    0.00 
 107   22:20   0.00   46.1    56    2.6   271     3.6   797.8    0.00 
 107   22:30   0.00   44.9    58    3.2   271     4.5   797.7    0.00 
 107   22:40   0.00   45.3    57    4.2    28     5.8   797.8    0.00 
 107   22:50   0.00   45.3    58    5.0   146     6.9   797.9    0.00 
 107   23:00   0.00   47.1    53    1.9   208     3.2   797.9    0.00 
 107   23:10   0.00   46.2    53    1.4   333     3.9   797.9    0.00 
 107   23:20   0.00   45.7    55    2.7   355     5.3   797.9    0.00 
 107   23:30   0.00   43.0    64    3.1    48     5.1   797.9    0.00 
 107   23:40   0.00   43.4    62    1.7    97     3.7   797.9    0.00 
 107   23:50   0.00   45.3    54    2.5   181     6.1   797.8    0.00 
 108    0:00   0.00   47.4    48    4.4   234     6.1   797.6    0.00 
 108    0:10   0.00   49.5    41    3.5   239     5.6   797.6    0.00 
 108    0:20   0.00   48.3    46    1.9   255     5.0   797.6    0.00 
 108    0:30   0.00   44.4    56    4.4   344     6.6   797.5    0.00 
 108    0:40   0.00   44.1    57    2.3   350     4.4   797.5    0.00 
 108    0:50   0.00   43.9    56    1.8   108     6.1   797.4    0.00 
 108    1:00   0.00   44.9    54    1.6   342     2.5   797.3    0.00 
 108    1:10   0.00   45.7    51    3.1   345     6.1   797.3    0.00 
 108    1:20   0.00   44.4    55    1.9   315     6.1   797.3    0.00 
 108    1:30   0.00   42.3    61    2.1   240     5.7   797.3    0.00 
 108    1:40   0.00   44.9    52    4.8   309     6.1   797.2    0.00 
 108    1:50   0.00   44.2    54    4.7   323     8.2   797.2    0.00 
 108    2:00   0.00   42.0    61    2.4    41     4.3   797.3    0.00 
 108    2:10   0.00   43.1    58    4.3    29     5.9   797.2    0.00 
 108    2:20   0.00   42.7    59    4.2   207     6.6   797.3    0.00 
 108    2:30   0.00   42.2    60    2.8   202     4.9   797.4    0.00 
 108    2:40   0.00   42.5    58    1.9    75     3.4   797.5    0.00 
 108    2:50   0.00   43.2    56    4.5   321     7.0   797.5    0.00 
 108    3:00   0.00   42.1    58    3.4    98     5.6   797.5    0.00 
 108    3:10   0.00   40.5    66    4.4   179     5.3   797.5    0.00 
 108    3:20   0.00   40.1    65    4.0   172     5.7   797.5    0.00 
 108    3:30   0.00   40.0    65    1.5   242     2.9   797.5    0.00 
 108    3:40   0.00   40.6    62    2.9   224     4.0   797.5    0.00 
 108    3:50   0.00   42.9    55    3.0   181     4.1   797.4    0.00 
 108    4:00   0.00   40.1    63    2.9   257     6.1   797.4    0.00 
 108    4:10   0.00   38.8    66    0.3   324     1.5   797.4    0.00 
 108    4:20   0.00   40.0    61    0.8   152     3.3   797.3    0.00 
 108    4:30   0.00   39.0    66    3.6    80     7.6   797.3    0.00 
 108    4:40   0.00   37.6    71    1.5   352     2.3   797.4    0.00 
 108    4:50   0.00   39.5    65    0.9    18     2.3   797.3    0.00 
 108    5:00   0.00   39.3    64    2.3   353     4.5   797.4    0.00 
 108    5:10   0.00   37.5    68    2.9   215     6.4   797.4    0.00 
 108    5:20   0.00   36.8    69    1.7   253     3.4   797.5    0.00 
 108    5:30   0.01   35.8    71    2.1   281     4.5   797.5    0.00 
 108    5:40   0.03   36.9    67    4.1   310     5.3   797.7    0.00 
 108    5:50   0.07   36.0    73    4.8   240     6.4   797.9    0.00 
 108    6:00   0.06   39.0    70    5.1   320     7.3   798.0    0.00 
 108    6:10   0.07   40.8    68    3.2   347     4.8   798.3    0.00 
 108    6:20   0.14   42.2    64    2.1    13     5.5   798.5    0.00 
 108    6:30   0.19   46.0    62    8.6    38    15.0   798.7    0.00 
 108    6:40   0.13   46.9    62   11.9    30    20.2   798.8    0.00 
 108    6:50   0.07   45.6    64   12.3    30    16.8   799.0    0.00 
 108    7:00   0.07   44.7    66   11.1    22    15.9   799.2    0.00 
 108    7:10   0.07   44.3    68   12.6    22    16.7   799.3    0.00 
 108    7:20   0.10   44.2    69   12.7    24    17.0   799.3    0.00 

Return to Bridgeport Valley graphs page.


Western Regional Climate Center,wrcc@dri.edu